ADDS TAF Board (Experimental) INFO Settings
IDs: Format: Expanded Condensed

KLGA - New York/La Guardia, NY, US

Issued at 0830 UTC 05 Jul 2015
Updated at: 0928 UTC 05 Jul 2015
Time0851Z 05/10Z 05/11Z 05/12Z 05/13Z 05/14Z 05/15Z 05/16Z 05/17Z 05/18Z 05/19Z 05/20Z 05/21Z 05/22Z
Type OBS PRVL PRVL PRVL PRVL PRVL PRVL PRVL PRVL PRVL PRVL PRVL PRVL PRVL
VIS 10 >6 >6 >6 >6 >6 >6 >6 >6 >6 >6 >6 >6 >6
CIG 44 40 40 40 -- -- -- -- -- -- -- -- -- --
Cover OVC BKN BKN BKN FEW FEW FEW FEW FEW FEW FEW FEW FEW FEW
FltCat VFR VFR VFR VFR VFR VFR VFR VFR VFR VFR VFR VFR VFR VFR
WX -- -- -- -- -- -- -- -- -- -- -- -- -- --
WDir 310 VRB VRB VRB 310 310 310 310 220 220 180 180 180 180
WSpd 5 3 3 3 5 5 5 5 7 7 9 9 9 9
WGst -- -- -- -- -- -- -- -- -- -- -- -- -- --
R04/22
XWnd 5 VRB VRB VRB 5 5 5 5 1 1 -5 -5 -5 -5
HWnd 1 VRB VRB VRB 1 1 1 1 -7 -7 -8 -8 -8 -8
R13/31
XWnd 1 VRB VRB VRB 1 1 1 1 -7 -7 -8 -8 -8 -8
HWnd -5 VRB VRB VRB -5 -5 -5 -5 -1 -1 5 5 5 5

NOTE: TEMPO conditions in [brackets]. Keep in mind TEMPO conditions might be better (lower impact) than prevailing conditions.

Raw TAF
KLGA 050830Z 0509/0606 VRB03KT P6SM BKN040 BKN080
  FM051300 31005KT P6SM FEW050
  FM051700 22007KT P6SM FEW060
  FM051900 18009KT P6SM FEW060
  FM060100 20006KT P6SM SKC


Raw METAR
KLGA 050851Z 31005KT 10SM OVC044 21/15 A3005 RMK AO2 SLP175 T02110150 53005
KLGA 050751Z 00000KT 10SM FEW039 BKN046 BKN250 21/17 A3004 RMK AO2 SLP171 T02110167
KLGA 050651Z 00000KT 10SM FEW060 BKN250 21/16 A3003 RMK AO2 SLP170 T02110161

METAR Board
Radar Display
Forecast Discussion

TAF Board Legend

Potential Impact
Threat None Slight Moderate High
Visibility (sm) ≥5.1 5.1>X≥3 3>X≥1 <1
Ceiling (100 ft) ≥30.1 30.1>X≥10 10>X≥5 <5
Wind Speed (kt) <10 10≤X<20 20≤X<30 ≥30
Wind Gust (kt) <15 15≤X<25 25≤X<35 ≥35
Weather No Wx Reported VCTS,-TS,-FZRA,SN TS,FZRA +TS,+FZRA,+SN